createdAt,value
2022-09-23T00:00:27.638Z,6.9
2022-09-23T00:01:43.931Z,7.5
2022-09-23T00:03:00.231Z,7.2
2022-09-23T00:04:16.519Z,6.3
2022-09-23T00:05:32.825Z,7.3
2022-09-23T00:06:48.123Z,7.2
2022-09-23T00:08:04.412Z,7.5
2022-09-23T00:09:20.722Z,7.7
2022-09-23T00:10:37.008Z,6.1
2022-09-23T00:11:53.298Z,7.3
2022-09-23T00:13:09.591Z,6.7
2022-09-23T00:14:25.899Z,6.9
2022-09-23T00:15:42.188Z,7.1
2022-09-23T00:16:58.483Z,6.7
2022-09-23T00:18:14.767Z,7.8
2022-09-23T00:19:31.064Z,6.4
2022-09-23T00:20:47.372Z,6.7
2022-09-23T00:22:03.660Z,6.3
2022-09-23T00:23:18.963Z,6.3
2022-09-23T00:24:35.255Z,7.1
2022-09-23T00:25:51.557Z,7.1
2022-09-23T00:27:07.861Z,7.4
2022-09-23T00:28:24.155Z,6.7
2022-09-23T00:29:40.439Z,6.3
2022-09-23T00:30:56.732Z,5.9
2022-09-23T00:32:13.030Z,6
2022-09-23T00:33:29.325Z,6.7
2022-09-23T00:34:45.620Z,6.5
2022-09-23T00:36:01.909Z,7.4
2022-09-23T00:37:18.202Z,6.1
2022-09-23T00:38:34.506Z,7
2022-09-23T00:39:49.815Z,6.6
2022-09-23T00:41:06.099Z,7.2
2022-09-23T00:42:22.394Z,6.3
2022-09-23T00:43:38.697Z,7.5
2022-09-23T00:44:54.994Z,7
2022-09-23T00:46:11.279Z,6.5
2022-09-23T00:47:27.588Z,6.7
2022-09-23T00:48:43.870Z,7.2
2022-09-23T00:50:00.167Z,6.5
2022-09-23T00:51:16.458Z,6.7
2022-09-23T00:52:32.754Z,7.2
2022-09-23T00:53:49.058Z,7.9
2022-09-23T00:55:05.336Z,6.9
2022-09-23T00:56:20.661Z,6.9
2022-09-23T00:57:36.944Z,7.6
2022-09-23T00:58:53.249Z,7.4
2022-09-23T01:00:09.539Z,7.7
2022-09-23T01:01:25.826Z,7.1
2022-09-23T01:02:42.131Z,7.5
2022-09-23T01:03:58.430Z,7
2022-09-23T01:05:14.722Z,8.2
2022-09-23T01:06:31.015Z,8.4
2022-09-23T01:07:47.295Z,7.4
2022-09-23T01:09:03.601Z,7.4
2022-09-23T01:10:19.895Z,6.9
2022-09-23T01:11:36.178Z,8.1
2022-09-23T01:12:51.501Z,8.1
2022-09-23T01:14:07.802Z,8.7
2022-09-23T01:15:24.084Z,8.2
2022-09-23T01:16:40.383Z,8.3
2022-09-23T01:17:56.669Z,8
2022-09-23T01:19:12.978Z,8.8
2022-09-23T01:20:29.259Z,7.4
2022-09-23T01:21:45.560Z,8.6
2022-09-23T01:23:01.845Z,8.8
2022-09-23T01:24:18.161Z,8.2
2022-09-23T01:25:34.449Z,8.8
2022-09-23T01:26:50.745Z,7.7
2022-09-23T01:28:07.023Z,8.6
2022-09-23T01:29:22.346Z,7.6
2022-09-23T01:30:38.643Z,9.2
2022-09-23T01:31:54.937Z,6.8
2022-09-23T01:33:11.222Z,7.7
2022-09-23T01:34:27.526Z,8
2022-09-23T01:35:43.821Z,8.2
2022-09-23T01:36:59.126Z,7.9
2022-09-23T01:38:15.432Z,7.2
2022-09-23T01:39:31.710Z,8.5
2022-09-23T01:40:48.019Z,7.6
2022-09-23T01:42:04.301Z,7.9
2022-09-23T01:43:20.601Z,8.3
2022-09-23T01:44:36.884Z,8.8
2022-09-23T01:45:53.195Z,8.4
2022-09-23T01:47:09.479Z,8.4
2022-09-23T01:48:25.770Z,8.1
2022-09-23T01:49:42.090Z,7.9
2022-09-23T01:50:58.372Z,6.9
2022-09-23T01:52:14.651Z,8.8
2022-09-23T01:53:29.968Z,8.4
2022-09-23T01:54:46.258Z,8.6
2022-09-23T01:56:02.569Z,8.3
2022-09-23T01:57:18.851Z,8
2022-09-23T01:58:35.142Z,7.6
2022-09-23T01:59:51.439Z,8.1
2022-09-23T02:01:07.740Z,7.9
2022-09-23T02:02:24.028Z,7.8
2022-09-23T02:03:40.319Z,9.4
2022-09-23T02:04:56.623Z,7.9
2022-09-23T02:06:12.924Z,7.5
2022-09-23T02:07:29.211Z,10.1
2022-09-23T02:08:45.498Z,10.6
2022-09-23T02:10:00.810Z,7.9
2022-09-23T02:11:17.118Z,9
2022-09-23T02:12:33.406Z,7.3
2022-09-23T02:13:49.691Z,6.8
2022-09-23T02:15:05.997Z,8.3
2022-09-23T02:16:22.294Z,7.2
2022-09-23T02:17:38.590Z,7.5
2022-09-23T02:18:54.869Z,8.2
2022-09-23T02:20:11.168Z,7
2022-09-23T02:21:27.470Z,7.9
2022-09-23T02:22:43.752Z,7.9
2022-09-23T02:24:00.057Z,9.1
2022-09-23T02:25:16.347Z,9
2022-09-23T02:26:31.651Z,7.3
2022-09-23T02:27:47.952Z,7.6
2022-09-23T02:29:04.246Z,7.6
2022-09-23T02:30:20.533Z,7.6
2022-09-23T02:31:36.840Z,8.1
2022-09-23T02:32:53.128Z,8.4
2022-09-23T02:34:09.434Z,8.6
2022-09-23T02:35:25.718Z,8.3
2022-09-23T02:36:42.017Z,7.9
2022-09-23T02:37:58.308Z,8.6
2022-09-23T02:39:14.600Z,7.4
2022-09-23T02:40:30.903Z,7.6
2022-09-23T02:41:47.189Z,9
2022-09-23T02:43:02.499Z,8.7
2022-09-23T02:44:18.791Z,7.3
2022-09-23T02:45:35.097Z,8.6
2022-09-23T02:46:51.383Z,7.8
2022-09-23T02:48:07.682Z,9.4
2022-09-23T02:49:23.967Z,7.3
2022-09-23T02:50:40.276Z,8.4
2022-09-23T02:51:56.562Z,8.4
2022-09-23T02:53:12.856Z,7.7
2022-09-23T02:54:29.144Z,8.1
2022-09-23T02:55:45.450Z,7.7
2022-09-23T02:57:01.749Z,9.4
2022-09-23T02:58:18.044Z,9.3
2022-09-23T02:59:33.347Z,8.2
2022-09-23T03:00:49.645Z,9.6
2022-09-23T03:02:05.932Z,11
2022-09-23T03:03:22.239Z,10.3
2022-09-23T03:04:38.518Z,9.3
2022-09-23T03:05:54.815Z,9.9
2022-09-23T03:07:11.113Z,8.6
2022-09-23T03:08:27.416Z,7.9
2022-09-23T03:09:43.710Z,9
2022-09-23T03:11:00.007Z,8.9
2022-09-23T03:12:16.289Z,7.6
2022-09-23T03:13:32.584Z,8.3
2022-09-23T03:14:48.884Z,9.8
2022-09-23T03:16:04.200Z,9
2022-09-23T03:17:20.480Z,7.8
2022-09-23T03:18:36.774Z,8.6
2022-09-23T03:19:53.071Z,8.2
2022-09-23T03:21:09.367Z,9.6
2022-09-23T03:22:25.673Z,9.8
2022-09-23T03:23:41.960Z,7.8
2022-09-23T03:24:58.243Z,9
2022-09-23T03:26:14.544Z,9.4
2022-09-23T03:27:30.842Z,8.2
2022-09-23T03:28:47.142Z,8
2022-09-23T03:30:03.431Z,10.3
2022-09-23T03:31:19.722Z,8.3
2022-09-23T03:32:35.039Z,7.7
2022-09-23T03:33:51.331Z,9.1
2022-09-23T03:35:07.617Z,7.9
2022-09-23T03:36:23.920Z,8.3
2022-09-23T03:37:40.220Z,9.4
2022-09-23T03:38:56.510Z,7.8
2022-09-23T03:40:12.800Z,8.1
2022-09-23T03:41:29.100Z,8.4
2022-09-23T03:42:45.388Z,10.8
2022-09-23T03:44:01.686Z,8.4
2022-09-23T03:45:17.972Z,9.1
2022-09-23T03:46:34.280Z,9.1
2022-09-23T03:47:50.576Z,8
2022-09-23T03:49:05.875Z,8.6
2022-09-23T03:50:22.170Z,8.2
2022-09-23T03:51:38.467Z,8.7
2022-09-23T03:52:54.762Z,9.3
2022-09-23T03:54:11.055Z,9.9
2022-09-23T03:55:27.355Z,7.9
2022-09-23T03:56:43.636Z,9
2022-09-23T03:57:59.937Z,8.8
2022-09-23T03:59:16.226Z,9
2022-09-23T04:00:32.532Z,9.1
2022-09-23T04:01:48.826Z,8.6
2022-09-23T04:03:05.113Z,8
2022-09-23T04:04:21.421Z,9.2
2022-09-23T04:05:36.729Z,8.5
2022-09-23T04:06:53.014Z,10.2
2022-09-23T04:08:09.320Z,8.8
2022-09-23T04:09:25.614Z,9.2
2022-09-23T04:10:41.899Z,11.2
2022-09-23T04:11:58.204Z,9.4
2022-09-23T04:13:14.495Z,8.4
2022-09-23T04:14:30.779Z,10.3
2022-09-23T04:15:47.080Z,9.8
2022-09-23T04:17:03.377Z,8.2
2022-09-23T04:18:19.668Z,11.3
2022-09-23T04:19:35.957Z,9.1
2022-09-23T04:20:52.250Z,8.9
2022-09-23T04:22:07.573Z,9
2022-09-23T04:23:23.817Z,8.6
2022-09-23T04:24:40.099Z,9.4
2022-09-23T04:25:56.364Z,9.3
2022-09-23T04:27:12.588Z,8.7
2022-09-23T04:28:28.883Z,9.2
2022-09-23T04:29:45.191Z,9.5
2022-09-23T04:31:01.484Z,10.2
2022-09-23T04:32:17.730Z,8.9
2022-09-23T04:33:33.984Z,9.1
2022-09-23T04:34:50.224Z,8.4
2022-09-23T04:36:06.452Z,9.2
2022-09-23T04:37:22.693Z,8.6
2022-09-23T04:38:37.958Z,9.9
2022-09-23T04:39:54.188Z,10.4
2022-09-23T04:41:10.443Z,9.7
2022-09-23T04:42:26.679Z,9.3
2022-09-23T04:43:42.915Z,9.5
2022-09-23T04:44:59.147Z,9.9
2022-09-23T04:46:15.395Z,9.4
2022-09-23T04:47:31.632Z,10
2022-09-23T04:48:47.878Z,10
2022-09-23T04:50:04.122Z,8.2
2022-09-23T04:51:20.354Z,8.1
2022-09-23T04:52:36.588Z,8.7
2022-09-23T04:53:52.829Z,9.4
2022-09-23T04:55:08.098Z,8.4
2022-09-23T04:56:24.345Z,10.6
2022-09-23T04:57:40.582Z,9.9
2022-09-23T04:58:56.822Z,10.5
2022-09-23T05:00:13.048Z,10.1
2022-09-23T05:01:29.300Z,10.4
2022-09-23T05:02:45.533Z,8.6
2022-09-23T05:04:01.770Z,9.1
2022-09-23T05:05:18.025Z,9.8
2022-09-23T05:06:34.268Z,9.4
2022-09-23T05:07:50.492Z,8.3
2022-09-23T05:09:06.742Z,9.9
2022-09-23T05:10:22.973Z,8.9
2022-09-23T05:11:38.231Z,9.6
2022-09-23T05:12:54.472Z,8.2
2022-09-23T05:14:10.720Z,9.1
2022-09-23T05:15:26.955Z,10.8
2022-09-23T05:16:43.208Z,10.1
2022-09-23T05:17:59.437Z,9.5
2022-09-23T05:19:15.686Z,10.1
2022-09-23T05:20:31.927Z,8.4
2022-09-23T05:21:48.164Z,9
2022-09-23T05:23:04.395Z,9.2
2022-09-23T05:24:20.634Z,9
2022-09-23T05:25:36.881Z,9.6
2022-09-23T05:26:53.132Z,8.8
2022-09-23T05:28:08.373Z,9.5
2022-09-23T05:29:24.632Z,9
2022-09-23T05:31:57.101Z,10.3
2022-09-23T05:33:13.348Z,9.2
2022-09-23T05:34:29.577Z,9.7
2022-09-23T05:35:45.819Z,9.5
2022-09-23T05:37:02.067Z,8.6
2022-09-23T05:38:18.301Z,8.8
2022-09-23T05:39:34.539Z,9.8
2022-09-23T05:40:50.780Z,8.4
2022-09-23T05:42:07.023Z,8.6
2022-09-23T05:43:23.270Z,9.1
2022-09-23T05:44:38.519Z,9.7
2022-09-23T05:45:54.754Z,9.9
2022-09-23T05:47:10.998Z,8.4
2022-09-23T05:48:27.235Z,8.8
2022-09-23T05:49:43.486Z,9.5
2022-09-23T05:50:59.732Z,8.7
2022-09-23T05:52:14.996Z,8.6
2022-09-23T05:53:31.235Z,9.1
2022-09-23T05:54:47.461Z,8.3
2022-09-23T05:56:03.709Z,9.2
2022-09-23T05:57:19.941Z,7.8
2022-09-23T05:58:36.183Z,10.4
2022-09-23T05:59:52.435Z,8.6
2022-09-23T06:01:08.677Z,8.5
2022-09-23T06:02:24.901Z,9.1
2022-09-23T06:03:41.144Z,8.8
2022-09-23T06:04:57.388Z,8.6
2022-09-23T06:06:13.635Z,8
2022-09-23T06:07:29.877Z,9.2
2022-09-23T06:08:45.129Z,9.1
2022-09-23T06:10:01.381Z,8.3
2022-09-23T06:11:17.608Z,8.9
2022-09-23T06:12:33.846Z,6.9
2022-09-23T06:13:50.094Z,8
2022-09-23T06:15:06.330Z,7.7
2022-09-23T06:16:22.562Z,8.3
2022-09-23T06:17:38.808Z,7.9
2022-09-23T06:18:55.050Z,7.7
2022-09-23T06:20:11.302Z,7.5
2022-09-23T06:21:27.528Z,8.4
2022-09-23T06:22:43.774Z,9.2
2022-09-23T06:24:00.016Z,7.8
2022-09-23T06:25:15.277Z,8.8
2022-09-23T06:26:31.507Z,8
2022-09-23T06:27:47.743Z,8.1
2022-09-23T06:29:03.997Z,8
2022-09-23T06:30:20.228Z,7.4
2022-09-23T06:31:36.482Z,9.7
2022-09-23T06:32:52.709Z,8.2
2022-09-23T06:34:08.955Z,8.6
2022-09-23T06:35:25.191Z,7.1
2022-09-23T06:36:41.439Z,9.9
2022-09-23T06:37:57.685Z,7.7
2022-09-23T06:39:13.908Z,6.2
2022-09-23T06:40:30.161Z,7.4
2022-09-23T06:41:45.406Z,8.2
2022-09-23T06:43:01.644Z,8.1
2022-09-23T06:44:17.894Z,7.3
2022-09-23T06:45:34.131Z,6.8
2022-09-23T06:46:50.365Z,6.5
2022-09-23T06:48:06.606Z,7.3
2022-09-23T06:49:22.848Z,8.5
2022-09-23T06:50:39.092Z,6.2
2022-09-23T06:51:55.334Z,7.7
2022-09-23T06:53:11.565Z,7.5
2022-09-23T06:54:27.807Z,6.2
2022-09-23T06:55:44.052Z,6.9
2022-09-23T06:57:00.299Z,7.3
2022-09-23T06:58:15.558Z,6.8
2022-09-23T06:59:31.788Z,7.3
2022-09-23T07:00:48.028Z,6.3
2022-09-23T07:02:04.266Z,6.8
2022-09-23T07:03:20.515Z,6.3
2022-09-23T07:04:36.739Z,7.1
2022-09-23T07:05:52.987Z,6.7
2022-09-23T07:07:09.239Z,6.9
2022-09-23T07:08:25.478Z,8.5
2022-09-23T07:09:41.701Z,6.9
2022-09-23T07:10:57.948Z,6.7
2022-09-23T07:12:14.178Z,7.8
2022-09-23T07:13:30.434Z,6.6
2022-09-23T07:14:45.683Z,5.9
2022-09-23T07:16:01.932Z,6.3
2022-09-23T07:17:18.163Z,6.7
2022-09-23T07:18:34.408Z,5.8
2022-09-23T07:19:50.643Z,6.6
2022-09-23T07:21:06.891Z,5.5
2022-09-23T07:22:23.127Z,6
2022-09-23T07:23:39.369Z,5.4
2022-09-23T07:24:55.603Z,5.4
2022-09-23T07:26:11.841Z,4.8
2022-09-23T07:27:28.080Z,6.4
2022-09-23T07:28:44.330Z,4.9
2022-09-23T07:30:00.558Z,6
2022-09-23T07:31:15.821Z,5.4
2022-09-23T07:32:32.064Z,4.8
2022-09-23T07:33:48.298Z,5.5
2022-09-23T07:35:04.535Z,5
2022-09-23T07:36:20.782Z,5.4
2022-09-23T07:37:37.024Z,5.1
2022-09-23T07:38:53.262Z,5.4
2022-09-23T07:40:09.502Z,7.8
2022-09-23T07:41:25.752Z,6.6
2022-09-23T07:42:41.981Z,6.4
2022-09-23T07:43:58.228Z,5.5
2022-09-23T07:45:14.471Z,6.1
2022-09-23T07:46:30.696Z,5.8
2022-09-23T07:47:45.967Z,6.6
2022-09-23T07:49:02.202Z,6.1
2022-09-23T07:50:18.443Z,5.9
2022-09-23T07:51:34.685Z,7.4
2022-09-23T07:52:50.910Z,6.6
2022-09-23T07:54:07.166Z,6.5
2022-09-23T07:55:23.406Z,5.6
2022-09-23T07:57:55.876Z,6.1
2022-09-23T07:59:12.118Z,5.1
2022-09-23T08:00:28.353Z,5.1
2022-09-23T08:01:44.605Z,5
2022-09-23T08:03:00.840Z,5.3
2022-09-23T08:04:16.085Z,5.7
2022-09-23T08:05:32.343Z,4.9
2022-09-23T08:06:48.582Z,4.6
2022-09-23T08:08:04.805Z,5.1
2022-09-23T08:09:21.065Z,6.3
2022-09-23T08:10:37.302Z,5
2022-09-23T08:11:53.541Z,5.3
2022-09-23T08:13:09.777Z,5.5
2022-09-23T08:14:26.015Z,5.2
2022-09-23T08:15:42.254Z,6
2022-09-23T08:16:58.497Z,6.2
2022-09-23T08:18:14.726Z,5.6
2022-09-23T08:19:30.972Z,4.8
2022-09-23T08:20:46.231Z,5.8
2022-09-23T08:22:02.467Z,6
2022-09-23T08:23:18.722Z,6.1
2022-09-23T08:24:34.956Z,5.8
2022-09-23T08:25:51.189Z,5.8
2022-09-23T08:27:07.439Z,5.4
2022-09-23T08:28:23.672Z,5.2
2022-09-23T08:29:39.916Z,5.5
2022-09-23T08:30:56.150Z,5.3
2022-09-23T08:32:12.402Z,7
2022-09-23T08:33:28.630Z,5.9
2022-09-23T08:34:44.880Z,5.5
2022-09-23T08:36:01.111Z,5.6
2022-09-23T08:37:16.369Z,5.5
2022-09-23T08:38:32.606Z,5.8
2022-09-23T08:39:48.842Z,5
2022-09-23T08:41:05.097Z,8.1
2022-09-23T08:42:21.324Z,6.6
2022-09-23T08:43:37.575Z,5.1
2022-09-23T08:44:53.815Z,5.7
2022-09-23T08:46:10.061Z,6.6
2022-09-23T08:47:26.284Z,6.2
2022-09-23T08:48:42.522Z,6.2
2022-09-23T08:49:58.773Z,5.6
2022-09-23T08:51:15.008Z,5.8
2022-09-23T08:52:31.253Z,5.6
2022-09-23T08:53:46.506Z,5.3
2022-09-23T08:55:02.752Z,4.8
2022-09-23T08:56:18.996Z,7.9
2022-09-23T08:57:35.220Z,4.7
2022-09-23T08:58:51.477Z,5.2
2022-09-23T09:00:07.699Z,5.5
2022-09-23T09:01:23.944Z,5.9
2022-09-23T09:02:40.191Z,6.1
2022-09-23T09:03:56.428Z,5.3
2022-09-23T09:05:12.671Z,5.9
2022-09-23T09:06:28.913Z,5.9
2022-09-23T09:07:45.149Z,5.3
2022-09-23T09:09:01.391Z,6.4
2022-09-23T09:10:16.656Z,6
2022-09-23T09:11:32.893Z,5.5
2022-09-23T09:12:49.118Z,6.5
2022-09-23T09:14:05.375Z,5.4
2022-09-23T09:15:21.608Z,6.1
2022-09-23T09:16:37.838Z,5.6
2022-09-23T09:17:54.079Z,5.3
2022-09-23T09:19:10.322Z,5.1
2022-09-23T09:20:26.572Z,5.7
2022-09-23T09:21:42.810Z,5.3
2022-09-23T09:22:59.055Z,5.3
2022-09-23T09:24:15.287Z,5.1
2022-09-23T09:25:31.528Z,5.7
2022-09-23T09:26:46.776Z,4.6
2022-09-23T09:28:03.029Z,5.9
2022-09-23T09:29:19.268Z,5.9
2022-09-23T09:30:35.512Z,4.8
2022-09-23T09:31:51.748Z,5.5
2022-09-23T09:33:07.985Z,4.7
2022-09-23T09:34:24.223Z,4.5
2022-09-23T09:35:40.460Z,5.1
2022-09-23T09:36:56.704Z,4.8
2022-09-23T09:38:12.937Z,6
2022-09-23T09:39:29.179Z,5.2
2022-09-23T09:40:45.435Z,5.8
2022-09-23T09:42:01.676Z,5.3
2022-09-23T09:43:16.916Z,5.4
2022-09-23T09:44:33.154Z,5.2
2022-09-23T09:45:49.398Z,5.1
2022-09-23T09:47:05.650Z,7.5
2022-09-23T09:48:21.889Z,4.8
2022-09-23T09:49:38.130Z,5.6
2022-09-23T09:50:54.354Z,5.7
2022-09-23T09:52:10.601Z,4.9
2022-09-23T09:53:26.836Z,5.6
2022-09-23T09:54:43.081Z,6.3
2022-09-23T09:55:59.314Z,5.4
2022-09-23T09:57:15.565Z,5.8
2022-09-23T09:58:31.804Z,6.4
2022-09-23T09:59:47.066Z,6.7
2022-09-23T10:01:03.307Z,7.4
2022-09-23T10:02:19.535Z,5.4
2022-09-23T10:03:35.792Z,5.1
2022-09-23T10:04:52.015Z,5
2022-09-23T10:06:08.253Z,6
2022-09-23T10:07:23.534Z,5.1
2022-09-23T10:08:39.758Z,7.7
2022-09-23T10:09:56.014Z,6.5
2022-09-23T10:11:12.244Z,5.8
2022-09-23T10:12:28.495Z,7.4
2022-09-23T10:13:44.718Z,4.6
2022-09-23T10:15:00.960Z,6
2022-09-23T10:16:17.207Z,4.9
2022-09-23T10:17:33.449Z,7.3
2022-09-23T10:18:49.694Z,6.7
2022-09-23T10:20:05.934Z,5.5
2022-09-23T10:21:22.156Z,5.8
2022-09-23T10:22:38.397Z,5.5
2022-09-23T10:23:53.671Z,5.7
2022-09-23T10:25:09.900Z,4.8
2022-09-23T10:26:26.133Z,4.9
2022-09-23T10:27:42.383Z,4.9
2022-09-23T10:28:58.632Z,5.3
2022-09-23T10:30:14.873Z,5.4
2022-09-23T10:31:31.094Z,5.2
2022-09-23T10:32:47.334Z,6.7
2022-09-23T10:34:03.580Z,6.1
2022-09-23T10:35:19.827Z,6.2
2022-09-23T10:36:36.062Z,4.3
2022-09-23T10:37:52.311Z,6.6
2022-09-23T10:39:08.550Z,5.9
2022-09-23T10:40:23.804Z,5
2022-09-23T10:41:40.047Z,6.1
2022-09-23T10:42:56.289Z,5.2
2022-09-23T10:44:12.518Z,5
2022-09-23T10:45:28.752Z,5.9
2022-09-23T10:46:44.991Z,5.7
2022-09-23T10:48:01.238Z,4.8
2022-09-23T10:49:17.476Z,5
2022-09-23T10:50:33.722Z,5.9
2022-09-23T10:51:49.951Z,4.9
2022-09-23T10:53:06.192Z,5.5
2022-09-23T10:54:22.442Z,7
2022-09-23T10:55:38.669Z,5.4
2022-09-23T10:58:10.167Z,6.3
2022-09-23T10:59:26.421Z,5
2022-09-23T11:00:42.664Z,4.7
2022-09-23T11:01:58.884Z,5.3
2022-09-23T11:03:15.136Z,5.4
2022-09-23T11:04:31.377Z,5
2022-09-23T11:05:47.615Z,6
2022-09-23T11:07:03.853Z,4.8
2022-09-23T11:08:20.096Z,5.4
2022-09-23T11:09:36.325Z,5.5
2022-09-23T11:10:52.563Z,4.9
2022-09-23T11:12:08.809Z,5.4
2022-09-23T11:13:24.068Z,6.2
2022-09-23T11:14:40.314Z,5.6
2022-09-23T11:15:56.539Z,4.6
2022-09-23T11:17:12.783Z,4.5
2022-09-23T11:18:29.022Z,4.7
2022-09-23T11:19:45.278Z,6
2022-09-23T11:21:01.511Z,5.3
2022-09-23T11:22:17.745Z,4.7
2022-09-23T11:23:33.979Z,5.8
2022-09-23T11:24:50.226Z,5.3
2022-09-23T11:26:06.458Z,4.7
2022-09-23T11:27:22.714Z,4.2
2022-09-23T11:28:38.947Z,4.4
2022-09-23T11:29:54.193Z,5
2022-09-23T11:31:10.436Z,6
2022-09-23T11:32:26.682Z,4.3
2022-09-23T11:33:42.915Z,6
2022-09-23T11:34:59.168Z,4.5
2022-09-23T11:36:15.404Z,5.5
2022-09-23T11:37:31.649Z,4.5
2022-09-23T11:38:47.875Z,5.1
2022-09-23T11:40:04.128Z,4
2022-09-23T11:41:20.366Z,5.1
2022-09-23T11:42:36.599Z,4.3
2022-09-23T11:43:52.834Z,3.8
2022-09-23T11:45:09.089Z,4.4
2022-09-23T11:46:24.328Z,4.2
2022-09-23T11:47:40.569Z,4.5
2022-09-23T11:48:56.827Z,6.1
2022-09-23T11:50:13.058Z,6
2022-09-23T11:51:29.292Z,6
2022-09-23T11:52:45.534Z,5.1
2022-09-23T11:54:01.773Z,4.3
2022-09-23T11:55:18.012Z,4.9
2022-09-23T11:56:34.257Z,4.7
2022-09-23T11:57:50.488Z,4
2022-09-23T11:59:06.731Z,4.3
2022-09-23T12:00:22.984Z,5.4
2022-09-23T12:01:39.227Z,5.7
2022-09-23T12:02:54.467Z,4.5
2022-09-23T12:04:10.727Z,4.3
2022-09-23T12:05:26.958Z,4.4
2022-09-23T12:06:43.197Z,5.6
2022-09-23T12:07:59.434Z,3.5
2022-09-23T12:09:15.668Z,4.5
2022-09-23T12:10:31.906Z,5
2022-09-23T12:11:48.151Z,4.5
2022-09-23T12:13:04.385Z,3.7
2022-09-23T12:14:20.645Z,4.6
2022-09-23T12:15:36.871Z,3.9
2022-09-23T12:16:53.116Z,4.4
2022-09-23T12:18:09.353Z,5
2022-09-23T12:19:24.618Z,4.2
2022-09-23T12:20:40.855Z,4.1
2022-09-23T12:21:57.099Z,4.9
2022-09-23T12:23:13.324Z,4.2
2022-09-23T12:24:29.573Z,4.4
2022-09-23T12:25:45.811Z,4.1
2022-09-23T12:27:02.049Z,4.7
2022-09-23T12:28:18.294Z,3.9
2022-09-23T12:29:34.536Z,3.8
2022-09-23T12:30:50.779Z,4.7
2022-09-23T12:32:07.009Z,5.5
2022-09-23T12:33:23.255Z,4.6
2022-09-23T12:34:39.489Z,5.5
2022-09-23T12:35:54.756Z,6.2
2022-09-23T12:37:10.989Z,4.3
2022-09-23T12:38:27.239Z,5
2022-09-23T12:39:43.464Z,4.1
2022-09-23T12:40:59.709Z,4.8
2022-09-23T12:42:15.949Z,4.5
2022-09-23T12:43:32.187Z,4.4
2022-09-23T12:44:48.426Z,6.4
2022-09-23T12:46:04.664Z,4.1
2022-09-23T12:47:20.909Z,5.3
2022-09-23T12:48:37.147Z,4.3
2022-09-23T12:49:53.401Z,9.5
2022-09-23T12:51:09.628Z,7.9
2022-09-23T12:52:24.896Z,4.9
2022-09-23T12:53:41.121Z,5.3
2022-09-23T12:54:57.372Z,4.2
2022-09-23T12:56:13.611Z,4.6
2022-09-23T12:57:29.846Z,6.1
2022-09-23T12:58:46.086Z,5.5
2022-09-23T13:00:02.333Z,5.3
2022-09-23T13:01:18.565Z,5.1
2022-09-23T13:02:34.798Z,5
2022-09-23T13:03:51.048Z,3.7
2022-09-23T13:05:07.292Z,3.4
2022-09-23T13:06:23.527Z,5.9
2022-09-23T13:07:39.763Z,3.9
2022-09-23T13:08:55.019Z,4.8
2022-09-23T13:10:11.271Z,3.7
2022-09-23T13:11:27.495Z,3.6
2022-09-23T13:12:43.750Z,4.1
2022-09-23T13:13:59.980Z,3.5
2022-09-23T13:15:16.235Z,4.5
2022-09-23T13:16:32.467Z,3.5
2022-09-23T13:17:48.703Z,3.5
2022-09-23T13:19:04.939Z,4.4
2022-09-23T13:20:21.185Z,3.8
2022-09-23T13:21:37.425Z,4.8
2022-09-23T13:24:09.904Z,4.5
2022-09-23T13:25:25.159Z,4.2
2022-09-23T13:26:41.395Z,4.8
2022-09-23T13:27:57.652Z,4.1
2022-09-23T13:29:13.885Z,4
2022-09-23T13:30:30.127Z,4
2022-09-23T13:31:46.367Z,3.8
2022-09-23T13:33:02.597Z,4.1
2022-09-23T13:34:18.840Z,4.7
2022-09-23T13:35:35.084Z,4
2022-09-23T13:36:51.332Z,3.5
2022-09-23T13:38:07.562Z,3.6
2022-09-23T13:39:23.796Z,4.7
2022-09-23T13:40:40.031Z,4.5
2022-09-23T13:41:55.289Z,4.4
2022-09-23T13:43:11.543Z,5.6
2022-09-23T13:44:27.777Z,4.7
2022-09-23T13:45:44.016Z,3.7
2022-09-23T13:47:00.253Z,3.9
2022-09-23T13:48:16.509Z,4.1
2022-09-23T13:49:32.732Z,4.5
2022-09-23T13:50:48.980Z,3.3
2022-09-23T13:52:05.221Z,3.3
2022-09-23T13:53:21.464Z,4.6
2022-09-23T13:54:37.700Z,3.6
2022-09-23T13:55:53.955Z,3
2022-09-23T13:57:10.173Z,3.8
2022-09-23T13:58:25.438Z,3.7
2022-09-23T13:59:41.671Z,3.2
2022-09-23T14:00:57.909Z,4.1
2022-09-23T14:02:14.164Z,3.7
2022-09-23T14:03:30.403Z,3.6
2022-09-23T14:04:46.627Z,4.1
2022-09-23T14:06:02.874Z,3.9
2022-09-23T14:07:19.124Z,4.1
2022-09-23T14:08:35.357Z,3.1
2022-09-23T14:09:51.589Z,3.8
2022-09-23T14:11:07.837Z,3.2
2022-09-23T14:12:24.086Z,4.3
2022-09-23T14:13:40.326Z,4.6
2022-09-23T14:14:55.566Z,3.5
2022-09-23T14:16:11.803Z,3.6
2022-09-23T14:17:28.053Z,4.1
2022-09-23T14:18:44.297Z,3.8
2022-09-23T14:20:00.533Z,3.9
2022-09-23T14:21:16.766Z,4.4
2022-09-23T14:22:32.030Z,3.7
2022-09-23T14:23:48.280Z,3.7
2022-09-23T14:25:04.511Z,3.8
2022-09-23T14:26:20.764Z,3.8
2022-09-23T14:27:36.992Z,3.6
2022-09-23T14:28:53.226Z,3.6
2022-09-23T14:30:09.467Z,4.2
2022-09-23T14:31:25.712Z,5
2022-09-23T14:32:41.963Z,4.5
2022-09-23T14:33:58.198Z,3.2
2022-09-23T14:35:14.433Z,4.2
2022-09-23T14:36:30.679Z,4.2
2022-09-23T14:37:46.923Z,4.2
2022-09-23T14:39:02.176Z,4.2
2022-09-23T14:40:18.411Z,3.6
2022-09-23T14:41:34.645Z,3.4
2022-09-23T14:42:50.896Z,3.5
2022-09-23T14:44:07.142Z,4.7
2022-09-23T14:45:23.373Z,3.4
2022-09-23T14:46:39.612Z,4
2022-09-23T14:47:55.852Z,5.6
2022-09-23T14:49:12.094Z,4.4
2022-09-23T14:50:28.325Z,3.5
2022-09-23T14:51:44.580Z,4.2
2022-09-23T14:53:00.806Z,4.8
2022-09-23T14:54:17.042Z,3.7
2022-09-23T14:55:32.301Z,4.2
2022-09-23T14:56:48.542Z,4.2
2022-09-23T14:58:04.790Z,3.8
2022-09-23T14:59:21.027Z,4.6
2022-09-23T15:00:37.265Z,3.7
2022-09-23T15:01:53.519Z,4.3
2022-09-23T15:03:09.748Z,4.6
2022-09-23T15:04:25.997Z,3.9
2022-09-23T15:05:42.239Z,3.9
2022-09-23T15:06:58.472Z,3.2
2022-09-23T15:08:14.711Z,4.4
2022-09-23T15:09:30.954Z,4
2022-09-23T15:10:47.186Z,3.6
2022-09-23T15:12:02.438Z,3.4
2022-09-23T15:13:18.682Z,2.9
2022-09-23T15:14:34.929Z,3.7
2022-09-23T15:15:51.172Z,4.4
2022-09-23T15:17:07.401Z,3.7
2022-09-23T15:18:23.642Z,3.8
2022-09-23T15:19:39.886Z,4.4
2022-09-23T15:20:56.126Z,4.3
2022-09-23T15:22:12.371Z,4.1
2022-09-23T15:23:28.601Z,3.1
2022-09-23T15:24:44.847Z,4
2022-09-23T15:26:01.082Z,4.7
2022-09-23T15:27:17.333Z,3.9
2022-09-23T15:28:32.587Z,3.4
2022-09-23T15:29:48.817Z,3.5
2022-09-23T15:31:05.062Z,5
2022-09-23T15:32:21.298Z,10.6
2022-09-23T15:33:37.553Z,5.1
2022-09-23T15:34:53.793Z,5.4
2022-09-23T15:36:10.030Z,4.6
2022-09-23T15:37:26.257Z,5.6
2022-09-23T15:38:42.513Z,44.3
2022-09-23T15:39:58.752Z,18.1
2022-09-23T15:41:14.973Z,4.5
2022-09-23T15:42:31.230Z,4
2022-09-23T15:43:47.470Z,4.2
2022-09-23T15:45:02.723Z,4.2
2022-09-23T15:46:18.967Z,4.8
2022-09-23T15:47:35.206Z,4.8
2022-09-23T15:48:51.448Z,4.5
2022-09-23T15:50:07.683Z,4.1
2022-09-23T15:51:23.911Z,4
2022-09-23T15:52:40.165Z,4.1
2022-09-23T15:53:56.393Z,4.7
2022-09-23T15:55:12.636Z,3.9
2022-09-23T15:56:28.887Z,3.7
2022-09-23T15:57:45.126Z,5.2
2022-09-23T15:59:01.352Z,6.8
2022-09-23T16:00:17.594Z,4.6
2022-09-23T16:01:32.850Z,4.7
2022-09-23T16:02:49.086Z,6.1
2022-09-23T16:04:05.329Z,5.2
2022-09-23T16:05:21.565Z,4.8
2022-09-23T16:06:37.812Z,3.6
2022-09-23T16:07:54.058Z,4.1
2022-09-23T16:09:10.302Z,5.9
2022-09-23T16:10:26.538Z,4
2022-09-23T16:11:42.770Z,5
2022-09-23T16:12:59.024Z,6.5
2022-09-23T16:14:15.250Z,5
2022-09-23T16:15:31.499Z,4.6
2022-09-23T16:16:47.744Z,5.2
2022-09-23T16:18:02.986Z,4.8
2022-09-23T16:19:19.232Z,3.5
2022-09-23T16:20:35.471Z,4
2022-09-23T16:21:51.714Z,5.3
2022-09-23T16:23:07.945Z,4.5
2022-09-23T16:24:24.194Z,5.3
2022-09-23T16:25:40.434Z,5.4
2022-09-23T16:26:56.678Z,6.1
2022-09-23T16:28:12.913Z,5.5
2022-09-23T16:29:29.148Z,6.6
2022-09-23T16:30:45.387Z,5.6
2022-09-23T16:32:01.637Z,6.3
2022-09-23T16:33:17.876Z,6
2022-09-23T16:34:33.136Z,5.6
2022-09-23T16:35:49.373Z,4.5
2022-09-23T16:37:05.604Z,5.5
2022-09-23T16:38:21.856Z,4.5
2022-09-23T16:39:38.094Z,5
2022-09-23T16:40:54.317Z,4.3
2022-09-23T16:42:10.558Z,5.3
2022-09-23T16:43:26.810Z,5.3
2022-09-23T16:44:43.038Z,4.8
2022-09-23T16:45:59.294Z,5.8
2022-09-23T16:47:15.535Z,5.1
2022-09-23T16:48:31.757Z,5.5
2022-09-23T16:49:48.012Z,5.9
2022-09-23T16:51:03.282Z,4.8
2022-09-23T16:52:19.504Z,4.5
2022-09-23T16:53:35.755Z,7.1
2022-09-23T16:54:51.980Z,5.4
2022-09-23T16:56:08.236Z,4.3
2022-09-23T16:57:24.470Z,5.7
2022-09-23T16:58:40.710Z,5.8
2022-09-23T16:59:56.939Z,7.1
2022-09-23T17:01:13.189Z,5.1
2022-09-23T17:02:29.418Z,5.9
2022-09-23T17:03:45.658Z,5.1
2022-09-23T17:05:01.901Z,7.3
2022-09-23T17:06:18.151Z,5.6
2022-09-23T17:07:33.395Z,7.1
2022-09-23T17:08:49.644Z,4.8
2022-09-23T17:10:05.872Z,5.3
2022-09-23T17:11:22.120Z,6.9
2022-09-23T17:12:38.370Z,5.6
2022-09-23T17:13:54.607Z,7.3
2022-09-23T17:15:10.838Z,6.2
2022-09-23T17:16:27.074Z,6.7
2022-09-23T17:17:43.320Z,7.7
2022-09-23T17:18:59.575Z,7.2
2022-09-23T17:20:15.802Z,9.1
2022-09-23T17:21:32.048Z,8.2
2022-09-23T17:22:48.274Z,7.4
2022-09-23T17:24:03.000Z,7.2
2022-09-23T17:25:19.775Z,7
2022-09-23T17:26:36.021Z,7.2
2022-09-23T17:27:52.266Z,7.7
2022-09-23T17:29:08.504Z,7.2
2022-09-23T17:30:24.750Z,9.7
2022-09-23T17:31:40.997Z,6.8
2022-09-23T17:32:57.277Z,7.2
2022-09-23T17:34:13.571Z,8.4
2022-09-23T17:35:29.851Z,8.2
2022-09-23T17:36:46.163Z,7.4
2022-09-23T17:38:02.464Z,7.3
2022-09-23T17:39:18.733Z,6.1